Time;durP1;ratioP1;P1;durP2;ratioP2;P2;SDS_P1;SDS_P2;PMS_P1;PMS_P2;Temp;Humidity;BMP_temperature;BMP_pressure;BME280_temperature;BME280_humidity;BME280_pressure;Samples;Min_cycle;Max_cycle;Signal;HPM_P1;HPM_P2
2022/05/07 00:00:25;;;;;;;22.73;15.68;;;;;;;13.84;77.82;102133.94;5031696;28;20033;-71
2022/05/07 00:02:50;;;;;;;20.17;15.63;;;;;;;13.84;78.24;102128.50;5031767;28;20423;-72
2022/05/07 00:05:15;;;;;;;21.77;15.65;;;;;;;13.76;77.17;102126.03;5032978;28;20033;-70
2022/05/07 00:07:41;;;;;;;24.20;16.30;;;;;;;13.75;77.32;102118.91;5032927;28;20602;-70
2022/05/07 00:10:07;;;;;;;23.58;16.10;;;;;;;13.68;77.38;102129.84;5032952;28;20068;-71
2022/05/07 00:12:32;;;;;;;21.55;15.27;;;;;;;13.61;77.54;102115.41;5032478;28;20036;-70
2022/05/07 00:14:57;;;;;;;20.10;15.68;;;;;;;13.58;77.76;102115.84;5032812;28;20056;-72
2022/05/07 00:20:08;;;;;;;18.17;15.52;;;;;;;13.52;78.75;102114.81;5032692;28;20040;-68
2022/05/07 00:22:33;;;;;;;23.85;15.13;;;;;;;13.57;79.22;102117.75;5032683;28;20104;-69
2022/05/07 00:24:58;;;;;;;19.30;15.10;;;;;;;13.46;78.42;102104.78;5031561;28;20037;-70
2022/05/07 00:27:23;;;;;;;18.58;14.57;;;;;;;13.43;78.33;102116.91;5032479;28;20079;-72
2022/05/07 00:29:49;;;;;;;20.92;15.05;;;;;;;13.44;79.56;102113.16;5032215;28;20403;-71
2022/05/07 00:32:14;;;;;;;21.80;14.73;;;;;;;13.42;79.18;102120.72;5032350;28;20025;-68
2022/05/07 00:34:40;;;;;;;23.98;14.63;;;;;;;13.43;79.04;102107.94;5032244;28;20026;-73
2022/05/07 00:37:05;;;;;;;19.80;14.23;;;;;;;13.39;78.58;102110.25;5032410;28;20022;-70
2022/05/07 00:39:30;;;;;;;20.20;14.50;;;;;;;13.39;78.17;102109.41;5031136;28;20033;-68
2022/05/07 00:42:01;;;;;;;21.45;14.15;;;;;;;13.43;78.55;102111.47;5032677;28;20025;-72
2022/05/07 00:44:27;;;;;;;18.52;14.30;;;;;;;13.37;79.29;102106.91;5032495;28;20026;-71
2022/05/07 00:46:52;;;;;;;21.63;13.95;;;;;;;13.45;78.92;102100.38;5032353;28;20040;-69
2022/05/07 00:49:18;;;;;;;17.45;14.00;;;;;;;13.43;79.71;102105.22;5032486;28;20038;-71
2022/05/07 00:51:43;;;;;;;20.50;14.45;;;;;;;13.38;80.77;102103.13;5032600;28;20080;-71
2022/05/07 00:54:09;;;;;;;22.00;15.10;;;;;;;13.32;80.42;102097.69;5032214;28;20045;-73
2022/05/07 00:56:36;;;;;;;20.20;14.88;;;;;;;13.23;80.01;102095.19;5031955;28;20033;-71
2022/05/07 00:59:03;;;;;;;19.08;15.10;;;;;;;13.28;80.09;102108.16;5032458;28;20040;-72
2022/05/07 01:01:28;;;;;;;19.40;14.77;;;;;;;13.25;79.62;102095.81;5028344;28;20392;-73
2022/05/07 01:03:54;;;;;;;18.30;14.90;;;;;;;13.26;80.45;102102.91;5032375;28;20033;-72
2022/05/07 01:06:20;;;;;;;18.48;14.60;;;;;;;13.27;80.14;102101.88;5032020;28;20046;-69
2022/05/07 01:08:47;;;;;;;19.02;14.75;;;;;;;13.25;80.83;102103.13;5047394;28;20388;-71
2022/05/07 01:11:14;;;;;;;19.33;14.77;;;;;;;13.22;79.93;102093.50;5032304;28;20083;-69
2022/05/07 01:13:41;;;;;;;18.77;14.45;;;;;;;13.24;81.32;102094.16;5032001;28;20029;-72
2022/05/07 01:16:06;;;;;;;21.15;15.13;;;;;;;13.26;80.75;102096.66;5047359;28;20041;-69
2022/05/07 01:18:31;;;;;;;20.20;14.43;;;;;;;13.18;81.55;102095.00;5031993;28;20374;-72
2022/05/07 01:20:58;;;;;;;19.17;14.75;;;;;;;13.16;80.85;102086.22;5032303;28;20021;-71
2022/05/07 01:23:24;;;;;;;17.85;14.38;;;;;;;13.14;81.18;102091.03;5032274;28;20044;-71
2022/05/07 01:25:50;;;;;;;19.38;14.50;;;;;;;13.12;81.76;102079.56;5033256;28;20044;-71
2022/05/07 01:28:15;;;;;;;18.95;14.98;;;;;;;13.12;81.52;102083.09;5036189;28;20029;-71
2022/05/07 01:30:40;;;;;;;18.55;14.07;;;;;;;13.12;81.16;102080.38;5035641;28;20030;-70
2022/05/07 01:33:06;;;;;;;18.40;14.68;;;;;;;13.10;80.42;102078.91;5036061;28;20076;-73
2022/05/07 01:35:31;;;;;;;19.33;14.50;;;;;;;13.07;81.43;102077.47;5035943;28;20449;-70
2022/05/07 01:37:56;;;;;;;18.55;14.52;;;;;;;13.10;80.92;102078.91;5035879;28;20043;-71
2022/05/07 01:40:21;;;;;;;19.55;14.43;;;;;;;13.06;81.89;102077.69;5035987;28;20389;-69
2022/05/07 01:42:47;;;;;;;17.30;14.10;;;;;;;13.06;81.59;102073.06;5035190;28;20037;-69
2022/05/07 01:45:12;;;;;;;17.10;13.90;;;;;;;13.02;82.04;102087.28;5035525;28;20030;-70
2022/05/07 01:50:22;;;;;;;20.20;14.30;;;;;;;13.02;82.18;102071.00;5035549;28;20447;-71
2022/05/07 01:53:18;;;;;;;18.63;13.88;;;;;;;13.01;81.28;102080.19;5035478;28;20029;-71
2022/05/07 01:55:44;;;;;;;18.73;13.90;;;;;;;13.07;81.46;102079.34;5035228;28;20064;-68
2022/05/07 01:58:10;;;;;;;21.02;14.25;;;;;;;13.07;82.27;102074.75;5035291;28;20057;-69
2022/05/07 02:00:36;;;;;;;18.13;14.32;;;;;;;13.08;81.67;102072.84;5032950;28;20061;-70
2022/05/07 02:03:01;;;;;;;18.45;14.38;;;;;;;13.05;82.38;102074.09;5033984;28;20547;-72
2022/05/07 02:05:28;;;;;;;19.08;14.13;;;;;;;13.02;82.56;102060.13;5035204;28;20104;-69
2022/05/07 02:07:54;;;;;;;20.17;13.90;;;;;;;13.02;82.48;102060.94;5035109;28;20040;-71
2022/05/07 02:10:20;;;;;;;16.38;14.00;;;;;;;12.98;82.48;102059.69;5035005;28;20033;-73
2022/05/07 02:12:47;;;;;;;18.65;13.80;;;;;;;12.97;81.70;102060.75;5035015;28;20376;-72
2022/05/07 02:15:12;;;;;;;18.67;13.82;;;;;;;12.92;82.61;102055.97;5033612;28;20030;-69
2022/05/07 02:17:37;;;;;;;18.60;14.57;;;;;;;12.89;82.47;102050.94;5034631;28;20041;-71
2022/05/07 02:20:03;;;;;;;18.20;14.52;;;;;;;12.90;82.84;102058.03;5033855;28;20404;-70
2022/05/07 02:22:29;;;;;;;21.00;14.82;;;;;;;12.90;82.11;102059.94;5034859;28;20045;-70
2022/05/07 02:24:55;;;;;;;18.05;14.25;;;;;;;12.85;82.22;102055.13;5034929;28;20052;-70
2022/05/07 02:27:21;;;;;;;18.55;14.43;;;;;;;12.90;82.81;102054.50;5035010;28;20457;-72
2022/05/07 02:29:46;;;;;;;17.77;14.35;;;;;;;12.88;83.80;102051.16;5033352;28;20495;-69
2022/05/07 02:32:13;;;;;;;19.13;15.30;;;;;;;12.85;82.18;102055.13;5034963;28;20044;-71
2022/05/07 02:34:39;;;;;;;18.55;14.52;;;;;;;12.83;83.87;102056.38;5034419;28;20060;-71
2022/05/07 02:37:05;;;;;;;17.75;14.75;;;;;;;12.86;83.97;102054.09;5034749;28;20119;-71
2022/05/07 02:39:32;;;;;;;18.50;15.77;;;;;;;12.84;83.27;102053.44;5034809;28;20033;-72
2022/05/07 02:45:01;;;;;;;17.92;16.02;;;;;;;12.88;82.64;102046.56;5012281;28;20539;-72
2022/05/07 02:47:27;;;;;;;17.15;15.02;;;;;;;12.83;83.44;102042.78;5012361;28;20038;-73
2022/05/07 02:49:53;;;;;;;18.60;15.15;;;;;;;12.84;83.74;102044.47;5022097;28;20069;-69
2022/05/07 02:52:18;;;;;;;19.83;15.65;;;;;;;12.81;83.58;102034.03;5033318;28;20057;-73
2022/05/07 02:54:43;;;;;;;20.08;16.58;;;;;;;12.85;84.15;102038.81;5032981;28;20035;-73
2022/05/07 02:57:09;;;;;;;20.63;15.25;;;;;;;12.83;82.71;102040.94;5034493;28;20124;-68
2022/05/07 02:59:34;;;;;;;23.08;15.60;;;;;;;12.84;83.96;102041.75;5034482;28;20044;-70
2022/05/07 03:02:00;;;;;;;19.00;15.45;;;;;;;12.82;83.79;102038.41;5031866;28;20112;-70
2022/05/07 03:04:26;;;;;;;21.80;16.33;;;;;;;12.79;83.44;102036.97;5034034;28;20040;-70
2022/05/07 03:06:51;;;;;;;21.50;15.93;;;;;;;12.79;84.27;102036.97;5033843;28;20046;-71
2022/05/07 03:09:16;;;;;;;19.52;16.55;;;;;;;12.81;83.13;102037.56;5033798;28;20037;-70
2022/05/07 03:11:43;;;;;;;24.10;16.20;;;;;;;12.76;83.23;102043.63;5033986;28;20457;-70
2022/05/07 03:14:08;;;;;;;22.65;16.95;;;;;;;12.75;83.67;102031.09;5034229;28;20025;-72
2022/05/07 03:16:38;;;;;;;22.77;17.60;;;;;;;12.78;83.90;102038.00;5034130;28;20496;-68
2022/05/07 03:19:04;;;;;;;19.70;16.60;;;;;;;12.81;84.19;102034.84;5033755;28;20039;-69
2022/05/07 03:21:29;;;;;;;20.45;16.63;;;;;;;12.82;84.39;102043.81;5033697;28;20079;-70
2022/05/07 03:23:55;;;;;;;24.65;17.90;;;;;;;12.83;83.36;102040.06;5033496;28;20021;-72
2022/05/07 03:26:22;;;;;;;20.88;16.90;;;;;;;12.78;83.55;102035.28;5033669;28;20473;-71
2022/05/07 03:28:47;;;;;;;26.25;17.52;;;;;;;12.82;83.00;102039.25;5033331;28;20033;-70
2022/05/07 03:31:13;;;;;;;25.05;18.42;;;;;;;12.80;83.62;102040.50;5032604;28;20035;-71
2022/05/07 03:33:38;;;;;;;19.90;17.23;;;;;;;12.79;83.69;102044.25;5032319;28;20033;-70
2022/05/07 03:36:05;;;;;;;25.65;17.30;;;;;;;12.74;82.93;102037.59;5033235;28;20408;-70
2022/05/07 03:38:30;;;;;;;20.95;16.17;;;;;;;12.76;83.28;102043.63;5033673;28;20029;-72
2022/05/07 03:40:56;;;;;;;20.67;16.20;;;;;;;12.81;82.80;102037.56;5033387;28;20345;-72
2022/05/07 03:43:21;;;;;;;23.45;17.55;;;;;;;12.71;83.60;102039.88;5033625;28;20032;-71
2022/05/07 03:45:46;;;;;;;20.88;17.50;;;;;;;12.70;83.97;102040.94;5033326;28;20484;-71
2022/05/07 03:48:11;;;;;;;24.58;18.45;;;;;;;12.68;83.73;102043.00;5033024;28;20045;-71
2022/05/07 03:50:37;;;;;;;22.80;17.52;;;;;;;12.70;83.78;102049.91;5033304;28;20021;-70
2022/05/07 03:55:46;;;;;;;23.40;16.83;;;;;;;12.67;83.29;102046.78;5033136;28;20523;-69
2022/05/07 03:58:15;;;;;;;24.20;17.25;;;;;;;12.68;83.65;102045.72;5033275;28;20037;-69
2022/05/07 04:00:41;;;;;;;21.90;17.20;;;;;;;12.67;84.31;102052.22;5030761;28;20022;-71
2022/05/07 04:03:06;;;;;;;21.58;15.88;;;;;;;12.58;84.20;102057.84;5033273;28;20384;-73
2022/05/07 04:05:31;;;;;;;19.58;15.15;;;;;;;12.51;83.75;102059.72;5032327;28;20025;-71
2022/05/07 04:07:57;;;;;;;19.90;15.10;;;;;;;12.46;83.75;102064.94;5032697;28;20033;-72
2022/05/07 04:10:22;;;;;;;18.75;16.55;;;;;;;12.42;83.84;102069.13;5033002;28;20029;-69
2022/05/07 04:12:51;;;;;;;22.23;16.60;;;;;;;12.39;84.04;102062.25;5032841;28;20029;-69
2022/05/07 04:15:17;;;;;;;20.50;16.77;;;;;;;12.33;84.89;102062.22;5032968;28;20033;-72
2022/05/07 04:17:42;;;;;;;24.42;17.08;;;;;;;12.43;85.02;102067.25;5032687;28;20033;-69
2022/05/07 04:20:09;;;;;;;28.25;19.08;;;;;;;12.43;85.46;102059.09;5032909;28;20037;-73
2022/05/07 04:22:35;;;;;;;30.00;19.65;;;;;;;12.47;85.25;102063.06;5032618;28;20033;-72
2022/05/07 04:25:01;;;;;;;32.63;20.65;;;;;;;12.47;84.68;102060.34;5032560;28;20396;-69
2022/05/07 04:27:26;;;;;;;32.00;21.25;;;;;;;12.52;84.89;102068.72;5032855;28;20109;-71
2022/05/07 04:29:51;;;;;;;30.60;21.67;;;;;;;12.52;83.96;102066.00;5032251;28;20036;-70
2022/05/07 04:32:16;;;;;;;31.92;20.75;;;;;;;12.49;84.60;102061.00;5032972;28;20622;-70
2022/05/07 04:34:42;;;;;;;30.80;21.55;;;;;;;12.56;83.97;102065.38;5032151;28;20017;-70
2022/05/07 04:37:07;;;;;;;27.95;20.77;;;;;;;12.57;84.85;102061.59;5032406;28;20030;-70
2022/05/07 04:39:34;;;;;;;26.40;21.25;;;;;;;12.66;83.78;102070.38;5032662;28;20067;-70
2022/05/07 04:42:00;;;;;;;32.47;22.05;;;;;;;12.63;84.83;102064.53;5031126;28;20383;-72
2022/05/07 04:44:25;;;;;;;27.05;22.20;;;;;;;12.68;84.64;102060.16;5032253;28;20709;-70
2022/05/07 04:46:50;;;;;;;28.52;22.15;;;;;;;12.71;84.49;102069.75;5032311;28;20104;-71
2022/05/07 04:49:19;;;;;;;27.95;22.23;;;;;;;12.66;83.01;102075.81;5032165;28;20029;-69
2022/05/07 04:51:45;;;;;;;31.00;22.75;;;;;;;12.60;83.10;102084.78;5031490;28;20029;-72
2022/05/07 04:54:10;;;;;;;35.92;22.00;;;;;;;12.61;83.23;102080.22;5022845;28;20084;-69
2022/05/07 04:56:36;;;;;;;34.15;21.90;;;;;;;12.65;83.10;102081.44;5012788;28;20026;-73
2022/05/07 04:59:01;;;;;;;34.60;22.92;;;;;;;12.63;84.93;102080.84;5021959;28;20048;-73
2022/05/07 05:01:27;;;;;;;28.15;22.50;;;;;;;12.68;84.21;102076.44;5031361;28;20037;-72
2022/05/07 05:03:52;;;;;;;33.78;22.23;;;;;;;12.69;83.50;102077.28;5030487;28;20116;-73
2022/05/07 05:06:18;;;;;;;29.67;22.70;;;;;;;12.69;82.67;102080.00;5035934;28;20131;-75
2022/05/07 05:08:43;;;;;;;27.80;22.88;;;;;;;12.71;82.71;102083.31;5034986;28;20388;-71
2022/05/07 05:11:08;;;;;;;26.98;22.52;;;;;;;12.77;82.77;102085.19;5036307;28;20029;-72
2022/05/07 05:13:33;;;;;;;30.90;22.67;;;;;;;12.75;82.88;102092.75;5036318;28;20029;-72
2022/05/07 05:15:59;;;;;;;28.50;23.33;;;;;;;12.75;82.35;102099.00;5036078;28;20040;-74
2022/05/07 05:18:24;;;;;;;28.67;23.13;;;;;;;12.73;82.32;102094.84;5036034;28;20116;-72
2022/05/07 05:20:50;;;;;;;30.40;22.77;;;;;;;12.72;82.25;102107.56;5035810;28;20472;-69
2022/05/07 05:23:15;;;;;;;30.42;24.17;;;;;;;12.71;82.43;102105.06;5036292;28;20026;-72
2022/05/07 05:25:43;;;;;;;30.38;23.63;;;;;;;12.73;82.76;102125.53;5036228;28;20636;-72
2022/05/07 05:28:09;;;;;;;28.73;24.42;;;;;;;12.72;82.61;102110.28;5035476;28;20457;-73
2022/05/07 05:30:34;;;;;;;34.35;23.67;;;;;;;12.73;82.78;102122.81;5030165;28;20034;-73
2022/05/07 05:33:00;;;;;;;31.05;25.40;;;;;;;12.73;82.32;102124.72;5035604;28;20030;-71
2022/05/07 05:35:25;;;;;;;30.92;26.05;;;;;;;12.71;82.64;102129.50;5035511;28;20029;-72
2022/05/07 05:37:50;;;;;;;32.13;26.88;;;;;;;12.70;82.29;102130.56;5035582;28;20033;-74
2022/05/07 05:40:16;;;;;;;29.15;25.92;;;;;;;12.66;82.67;102118.44;5035753;28;20037;-71
2022/05/07 05:42:42;;;;;;;29.65;26.02;;;;;;;12.72;82.84;102123.84;5035841;28;20030;-74
2022/05/07 05:45:09;;;;;;;32.83;27.00;;;;;;;12.74;82.36;102127.22;5035167;28;20052;-71
2022/05/07 05:47:35;;;;;;;32.25;27.48;;;;;;;12.78;81.84;102124.91;5035114;28;20476;-72
2022/05/07 05:50:01;;;;;;;31.17;26.65;;;;;;;12.79;82.31;102132.03;5035345;28;20064;-72
2022/05/07 05:52:27;;;;;;;32.45;27.00;;;;;;;12.83;82.57;102127.84;5035390;28;20358;-73
2022/05/07 05:54:53;;;;;;;34.67;26.35;;;;;;;12.89;82.45;102124.31;5035236;28;20029;-73
2022/05/07 05:57:18;;;;;;;36.33;27.88;;;;;;;12.92;82.75;102120.31;5034306;28;20080;-72
2022/05/07 05:59:43;;;;;;;42.22;28.40;;;;;;;12.91;82.76;102129.53;5035600;28;20404;-72
2022/05/07 06:02:08;;;;;;;39.28;28.85;;;;;;;12.89;83.38;102120.72;5031580;28;20025;-73
2022/05/07 06:04:34;;;;;;;33.95;28.60;;;;;;;12.93;83.43;102122.81;5035809;28;20025;-73
2022/05/07 06:07:00;;;;;;;37.75;27.88;;;;;;;12.94;83.96;102124.50;5035331;28;20054;-74
2022/05/07 06:09:28;;;;;;;37.17;27.10;;;;;;;12.98;82.89;102118.63;5035248;28;20115;-72
2022/05/07 06:11:54;;;;;;;35.55;27.45;;;;;;;13.01;83.05;102126.38;5034666;28;20033;-72
2022/05/07 06:14:20;;;;;;;36.65;27.15;;;;;;;13.08;82.85;102124.50;5050304;28;20389;-73
2022/05/07 06:16:45;;;;;;;30.67;25.85;;;;;;;13.14;82.69;102128.25;5035027;28;20032;-72
2022/05/07 06:19:10;;;;;;;37.92;25.75;;;;;;;13.21;82.15;102123.63;5034541;28;20048;-72
2022/05/07 06:21:36;;;;;;;32.70;25.33;;;;;;;13.33;81.82;102129.25;5035130;28;20038;-73
2022/05/07 06:27:28;;;;;;;31.45;24.50;;;;;;;13.41;81.35;102131.78;5034951;28;20025;-71
2022/05/07 06:29:30;;;;;;;33.40;23.92;;;;;;;13.54;81.05;102136.34;5034908;28;20094;-74
2022/05/07 06:31:56;;;;;;;33.55;23.20;;;;;;;13.53;80.83;102138.25;5033800;28;20029;-73
2022/05/07 06:34:23;;;;;;;31.05;22.75;;;;;;;13.56;81.02;102135.09;5034867;28;20033;-73
2022/05/07 06:36:48;;;;;;;32.95;23.50;;;;;;;13.64;80.89;102134.03;5033330;28;20424;-74
2022/05/07 06:39:15;;;;;;;31.55;23.88;;;;;;;13.68;81.05;102139.88;5034852;28;20059;-70
2022/05/07 06:41:41;;;;;;;33.40;23.35;;;;;;;13.74;80.71;102134.41;5034768;28;20101;-72
2022/05/07 06:44:06;;;;;;;30.38;23.35;;;;;;;13.81;80.49;102139.81;5034468;28;20113;-73
2022/05/07 06:46:32;;;;;;;30.23;22.58;;;;;;;13.88;80.03;102139.81;5034420;28;20049;-71
2022/05/07 06:48:57;;;;;;;32.17;22.40;;;;;;;13.93;80.11;102143.53;5034398;28;20115;-73
2022/05/07 06:51:24;;;;;;;31.80;23.83;;;;;;;13.99;80.32;102145.41;5034345;28;20040;-70
2022/05/07 06:53:49;;;;;;;38.65;24.70;;;;;;;14.08;80.02;102145.16;5034556;28;20041;-71
2022/05/07 06:56:14;;;;;;;33.83;23.55;;;;;;;14.10;78.76;102143.03;5034632;28;20021;-72
2022/05/07 06:58:41;;;;;;;32.25;23.38;;;;;;;14.13;78.59;102143.47;5034526;28;20384;-73
2022/05/07 07:01:07;;;;;;;31.15;22.38;;;;;;;14.10;78.93;102146.63;5031332;28;20099;-72
2022/05/07 07:03:33;;;;;;;31.35;22.63;;;;;;;14.17;79.07;102147.41;5034376;28;20045;-71
2022/05/07 07:05:59;;;;;;;29.40;22.10;;;;;;;14.24;78.43;102147.38;5033813;28;20045;-74
2022/05/07 07:08:25;;;;;;;32.25;22.60;;;;;;;14.26;78.07;102142.53;5034436;28;20029;-74
2022/05/07 07:10:50;;;;;;;32.15;22.35;;;;;;;14.23;77.66;102145.69;5033967;28;20444;-73
2022/05/07 07:13:16;;;;;;;29.15;21.48;;;;;;;14.27;77.83;102146.13;5034284;28;20033;-71
2022/05/07 07:15:42;;;;;;;30.15;21.15;;;;;;;14.31;77.12;102145.47;5032933;28;20080;-73
2022/05/07 07:18:09;;;;;;;33.45;22.42;;;;;;;14.42;78.47;102148.53;5033360;28;20043;-72
2022/05/07 07:20:44;;;;;;;35.55;22.00;;;;;;;14.54;77.42;102152.25;5034086;28;20037;-73
2022/05/07 07:23:11;;;;;;;28.05;20.73;;;;;;;14.63;77.26;102147.38;5032706;28;20468;-71
2022/05/07 07:25:40;;;;;;;30.50;21.10;;;;;;;14.62;76.83;102148.44;5033633;28;20025;-73
2022/05/07 07:28:09;;;;;;;29.50;21.40;;;;;;;14.69;77.79;102146.50;5033608;28;20366;-72
2022/05/07 07:30:34;;;;;;;28.63;21.52;;;;;;;14.71;76.14;102139.78;5049115;28;20061;-72
2022/05/07 07:33:00;;;;;;;26.98;20.08;;;;;;;14.81;76.28;102143.88;5033348;28;20102;-72
2022/05/07 07:35:26;;;;;;;31.17;21.13;;;;;;;14.84;76.96;102146.16;5033889;28;20116;-71
2022/05/07 07:37:52;;;;;;;35.75;21.83;;;;;;;14.84;76.68;102149.75;5033196;28;20025;-70
2022/05/07 07:40:17;;;;;;;29.63;22.10;;;;;;;14.93;76.06;102144.00;5033490;28;20038;-72
2022/05/07 07:42:43;;;;;;;26.55;20.77;;;;;;;15.00;74.98;102148.34;5033535;28;20033;-73
2022/05/07 07:47:57;;;;;;;28.05;20.65;;;;;;;15.13;76.21;102146.56;5033359;28;20435;-72
2022/05/07 07:50:24;;;;;;;27.35;20.40;;;;;;;15.22;74.80;102147.97;5032768;28;20037;-70
2022/05/07 07:53:00;;;;;;;28.10;18.63;;;;;;;15.32;73.61;102150.97;5033143;28;20109;-73
2022/05/07 07:55:26;;;;;;;28.30;19.27;;;;;;;15.34;71.73;102142.56;5033413;28;20095;-73
2022/05/07 07:57:56;;;;;;;32.78;20.40;;;;;;;15.38;72.11;102150.09;5033326;28;20041;-73
2022/05/07 08:00:22;;;;;;;28.58;19.20;;;;;;;15.46;71.87;102140.78;5033077;28;20029;-73
2022/05/07 08:02:52;;;;;;;26.05;18.58;;;;;;;15.50;71.70;102150.16;5031270;28;20025;-71
2022/05/07 08:05:37;;;;;;;33.80;20.73;;;;;;;15.61;72.29;102143.16;5032617;28;20033;-73
2022/05/07 08:13:33;;;;;;;31.90;19.50;;;;;;;15.86;70.70;102139.53;5031781;28;20041;-72
2022/05/07 08:16:03;;;;;;;31.58;20.10;;;;;;;15.93;72.15;102129.34;5032557;28;20059;-72
2022/05/07 08:18:29;;;;;;;31.80;20.83;;;;;;;15.93;68.61;102145.75;5032724;28;20037;-73
2022/05/07 08:20:55;;;;;;;30.58;20.73;;;;;;;15.87;68.80;102147.47;5032286;28;20472;-72
2022/05/07 08:23:21;;;;;;;30.42;20.33;;;;;;;15.96;70.36;102148.00;5032692;28;20064;-73
2022/05/07 08:25:48;;;;;;;28.00;19.23;;;;;;;15.96;68.37;102148.00;5032552;28;20490;-73
2022/05/07 08:28:13;;;;;;;27.70;19.45;;;;;;;15.99;69.07;102150.28;5032625;28;20040;-73
2022/05/07 08:30:39;;;;;;;28.88;18.80;;;;;;;15.99;67.63;102150.28;5032404;28;20026;-73
2022/05/07 08:33:05;;;;;;;28.00;18.83;;;;;;;16.01;67.82;102148.13;5031260;28;20467;-71
2022/05/07 08:35:31;;;;;;;27.98;19.45;;;;;;;16.10;69.39;102149.50;5032378;28;20033;-74
2022/05/07 08:37:56;;;;;;;27.95;18.52;;;;;;;16.17;67.00;102148.56;5032487;28;20029;-73
2022/05/07 08:40:22;;;;;;;29.90;18.90;;;;;;;16.29;67.16;102157.66;5032394;28;20021;-73
2022/05/07 08:42:47;;;;;;;30.83;17.92;;;;;;;16.37;66.72;102154.59;5047976;28;20060;-74
2022/05/07 08:45:13;;;;;;;27.23;18.40;;;;;;;16.42;64.17;102149.25;5031858;28;20091;-71
2022/05/07 08:47:39;;;;;;;28.13;19.33;;;;;;;16.48;64.17;102159.25;5032584;28;20033;-71
2022/05/07 08:50:09;;;;;;;28.13;18.88;;;;;;;16.61;64.45;102146.47;5032395;28;20026;-72
2022/05/07 08:52:41;;;;;;;26.75;17.88;;;;;;;16.73;64.42;102154.72;5030755;28;20518;-71
2022/05/07 08:55:10;;;;;;;29.90;17.27;;;;;;;16.81;64.07;102152.44;5032235;28;20533;-71
2022/05/07 08:57:36;;;;;;;25.33;17.35;;;;;;;16.86;64.52;102143.53;5032529;28;20033;-71
2022/05/07 09:00:02;;;;;;;24.50;17.75;;;;;;;16.96;63.24;102143.81;5031408;28;20677;-74
2022/05/07 09:02:27;;;;;;;26.08;17.08;;;;;;;17.05;64.63;102144.31;5029779;28;20045;-71
2022/05/07 09:04:55;;;;;;;28.83;16.77;;;;;;;17.18;63.05;102138.63;5032276;28;20041;-74
2022/05/07 09:07:20;;;;;;;34.30;18.30;;;;;;;17.29;62.52;102141.59;5031097;28;20045;-74
2022/05/07 09:09:50;;;;;;;31.98;17.70;;;;;;;17.44;63.31;102149.31;5018081;28;20044;-75
2022/05/07 09:12:23;;;;;;;30.25;19.55;;;;;;;17.46;61.52;102141.69;5012389;28;20030;-73
2022/05/07 09:14:51;;;;;;;29.17;19.10;;;;;;;17.43;61.25;102140.25;5024238;28;20029;-74
2022/05/07 09:17:19;;;;;;;27.15;18.65;;;;;;;17.44;60.71;102136.44;5031209;28;20025;-77
2022/05/07 09:19:44;;;;;;;26.58;17.48;;;;;;;17.48;61.47;102140.38;5030824;28;20040;-74
2022/05/07 09:22:11;;;;;;;26.30;17.65;;;;;;;17.51;60.08;102137.16;5028277;28;20022;-71
2022/05/07 09:24:37;;;;;;;26.02;17.50;;;;;;;17.54;59.63;102133.94;5017115;28;20175;-71
2022/05/07 09:27:03;;;;;;;24.92;16.65;;;;;;;17.63;60.57;102133.56;5030775;28;20539;-71
2022/05/07 09:29:30;;;;;;;29.08;17.45;;;;;;;17.71;60.70;102130.47;5031726;28;20057;-73
2022/05/07 09:32:06;;;;;;;32.42;18.77;;;;;;;17.80;60.63;102126.28;5030646;28;20495;-75
2022/05/07 09:37:20;;;;;;;30.02;21.50;;;;;;;17.93;58.06;102138.03;5020660;28;20056;-71
2022/05/07 09:39:48;;;;;;;33.90;21.85;;;;;;;17.80;57.32;102133.63;5032301;28;20030;-74
2022/05/07 09:42:19;;;;;;;33.88;20.63;;;;;;;17.80;59.36;102142.69;5031716;28;20088;-74
2022/05/07 09:44:45;;;;;;;31.27;21.48;;;;;;;17.79;58.93;102138.28;5031590;28;20052;-74
2022/05/07 09:47:12;;;;;;;30.85;19.70;;;;;;;17.91;59.91;102138.28;5032960;28;20029;-72
2022/05/07 09:50:19;;;;;;;31.98;19.80;;;;;;;17.98;59.16;102147.19;5035544;28;20029;-74
2022/05/07 09:52:27;;;;;;;30.60;20.02;;;;;;;17.98;58.82;102143.59;5033508;28;20073;-75
2022/05/07 09:57:38;;;;;;;31.55;21.60;;;;;;;18.04;57.75;102138.00;5035459;28;20408;-74
2022/05/07 10:00:08;;;;;;;32.95;21.73;;;;;;;18.01;57.45;102140.38;5035063;28;20034;-71
2022/05/07 10:02:52;;;;;;;32.83;21.77;;;;;;;18.06;58.16;102143.25;5033195;28;20117;-71
2022/05/07 10:05:54;;;;;;;29.55;19.08;;;;;;;18.07;58.22;102142.16;5035095;28;20030;-75
2022/05/07 10:08:48;;;;;;;27.25;18.95;;;;;;;18.12;57.72;102139.53;5034633;28;20090;-74
2022/05/07 10:11:16;;;;;;;31.55;21.77;;;;;;;18.10;56.21;102138.94;5033874;28;20030;-72
2022/05/07 10:13:54;;;;;;;28.23;19.42;;;;;;;18.12;56.95;102134.03;5035159;28;20021;-74
2022/05/07 10:16:21;;;;;;;30.77;17.75;;;;;;;18.23;54.64;102132.31;5035073;28;20037;-74
2022/05/07 10:18:46;;;;;;;26.50;15.50;;;;;;;18.34;52.91;102133.34;5033117;28;20495;-72
2022/05/07 10:21:16;;;;;;;22.65;14.55;;;;;;;18.43;53.11;102134.59;5033556;28;20034;-74
2022/05/07 10:23:52;;;;;;;26.48;16.40;;;;;;;18.44;54.09;102119.81;5035117;28;20041;-75
2022/05/07 10:26:22;;;;;;;26.15;15.60;;;;;;;18.62;54.03;102121.50;5032579;28;20029;-72
2022/05/07 10:28:48;;;;;;;23.05;14.27;;;;;;;18.70;53.60;102117.53;5015392;28;20056;-72
2022/05/07 10:31:21;;;;;;;20.92;13.75;;;;;;;18.76;51.83;102125.56;5015012;28;20034;-73
2022/05/07 10:33:48;;;;;;;19.38;12.57;;;;;;;18.89;52.54;102127.19;5017581;28;20025;-72
2022/05/07 10:36:14;;;;;;;25.90;14.65;;;;;;;18.86;50.82;102121.41;5034404;28;20068;-76
2022/05/07 10:38:42;;;;;;;21.90;13.30;;;;;;;18.97;53.05;102123.19;5034601;28;20026;-73
2022/05/07 10:41:16;;;;;;;20.88;11.75;;;;;;;19.16;53.98;102126.50;5034019;28;20568;-72
2022/05/07 10:43:56;;;;;;;19.17;10.15;;;;;;;19.35;50.59;102126.22;5035118;28;20472;-73
2022/05/07 10:46:22;;;;;;;18.17;8.90;;;;;;;19.49;49.07;102119.28;5034330;28;20026;-75
2022/05/07 10:49:02;;;;;;;23.80;10.70;;;;;;;19.41;49.66;102114.22;5034803;28;20032;-73
2022/05/07 10:51:34;;;;;;;13.88;8.25;;;;;;;19.47;45.10;102115.94;5021011;28;20068;-74
2022/05/07 10:54:03;;;;;;;17.90;10.07;;;;;;;19.58;47.26;102119.66;5034362;28;20028;-72
2022/05/07 10:56:32;;;;;;;16.25;10.15;;;;;;;19.65;47.66;102110.13;5034071;28;20472;-73
2022/05/07 10:58:58;;;;;;;18.83;10.10;;;;;;;19.80;47.93;102114.19;5033297;28;20075;-71
2022/05/07 11:01:25;;;;;;;18.02;10.40;;;;;;;19.98;50.27;102115.78;5031871;28;20033;-72
2022/05/07 11:04:05;;;;;;;20.55;10.07;;;;;;;20.13;51.46;102110.44;5033269;28;20520;-71
2022/05/07 11:06:44;;;;;;;18.00;10.32;;;;;;;20.28;48.83;102109.78;5033913;28;20092;-72
2022/05/07 11:09:21;;;;;;;19.00;10.75;;;;;;;20.17;47.24;102102.53;5032568;28;20029;-76
2022/05/07 11:11:53;;;;;;;16.70;9.98;;;;;;;20.27;49.77;102108.09;5030544;28;20021;-70
2022/05/07 11:14:25;;;;;;;18.95;10.95;;;;;;;20.41;47.58;102107.69;5014149;28;20030;-72
2022/05/07 11:16:52;;;;;;;19.63;9.82;;;;;;;20.44;46.59;102112.66;5014688;28;20041;-74
2022/05/07 11:19:27;;;;;;;17.40;9.73;;;;;;;20.32;47.66;102105.44;5014067;28;20033;-74
2022/05/07 11:21:54;;;;;;;16.23;9.98;;;;;;;20.20;48.61;102099.28;5014231;28;20092;-74
2022/05/07 11:24:20;;;;;;;20.20;11.38;;;;;;;20.03;48.85;102106.78;5031312;28;20037;-74
2022/05/07 11:26:53;;;;;;;16.83;9.85;;;;;;;19.95;50.20;102117.13;5034009;28;20033;-74
2022/05/07 11:29:19;;;;;;;19.20;10.20;;;;;;;19.81;48.83;102113.13;5032170;28;20536;-73
2022/05/07 11:31:54;;;;;;;19.13;9.60;;;;;;;19.72;49.81;102114.63;5032682;28;20052;-73
2022/05/07 11:34:31;;;;;;;19.00;9.55;;;;;;;19.73;49.19;102108.03;5033297;28;20034;-73
2022/05/07 11:37:09;;;;;;;16.42;9.15;;;;;;;19.85;48.83;102114.25;5033527;28;20087;-72